sensor_id;sensor_type;location;lat;lon;timestamp;temperature;humidity
16846;DHT22;8539;53.188;8.696;2024-01-25T00:01:41;6.80;99.90
16846;DHT22;8539;53.188;8.696;2024-01-25T00:04:06;6.80;99.90
16846;DHT22;8539;53.188;8.696;2024-01-25T00:06:32;6.80;99.90
16846;DHT22;8539;53.188;8.696;2024-01-25T00:08:58;6.80;99.90
16846;DHT22;8539;53.188;8.696;2024-01-25T00:11:24;6.80;99.90
16846;DHT22;8539;53.188;8.696;2024-01-25T00:13:49;6.80;99.90
16846;DHT22;8539;53.188;8.696;2024-01-25T00:16:15;6.80;99.90
16846;DHT22;8539;53.188;8.696;2024-01-25T00:18:40;6.80;99.90
16846;DHT22;8539;53.188;8.696;2024-01-25T00:21:06;6.80;99.90
16846;DHT22;8539;53.188;8.696;2024-01-25T00:23:32;6.80;99.90
16846;DHT22;8539;53.188;8.696;2024-01-25T00:25:58;6.80;99.90
16846;DHT22;8539;53.188;8.696;2024-01-25T00:28:24;6.80;99.90
16846;DHT22;8539;53.188;8.696;2024-01-25T00:30:50;6.80;99.90
16846;DHT22;8539;53.188;8.696;2024-01-25T00:33:15;6.80;99.90
16846;DHT22;8539;53.188;8.696;2024-01-25T00:35:41;6.80;99.90
16846;DHT22;8539;53.188;8.696;2024-01-25T00:38:07;6.80;99.90
16846;DHT22;8539;53.188;8.696;2024-01-25T00:40:33;6.80;99.90
16846;DHT22;8539;53.188;8.696;2024-01-25T00:42:58;6.70;99.90
16846;DHT22;8539;53.188;8.696;2024-01-25T00:45:24;6.70;99.90
16846;DHT22;8539;53.188;8.696;2024-01-25T00:47:50;6.70;99.90
16846;DHT22;8539;53.188;8.696;2024-01-25T00:50:16;6.70;99.90
16846;DHT22;8539;53.188;8.696;2024-01-25T00:52:51;6.70;99.90
16846;DHT22;8539;53.188;8.696;2024-01-25T00:55:17;6.70;99.90
16846;DHT22;8539;53.188;8.696;2024-01-25T00:57:42;6.60;99.90
16846;DHT22;8539;53.188;8.696;2024-01-25T01:00:08;6.60;99.90
16846;DHT22;8539;53.188;8.696;2024-01-25T01:02:36;6.60;99.90
16846;DHT22;8539;53.188;8.696;2024-01-25T01:05:02;6.50;99.90
16846;DHT22;8539;53.188;8.696;2024-01-25T01:07:27;6.50;99.90
16846;DHT22;8539;53.188;8.696;2024-01-25T01:09:53;6.50;99.90
16846;DHT22;8539;53.188;8.696;2024-01-25T01:12:19;6.40;99.90
16846;DHT22;8539;53.188;8.696;2024-01-25T01:14:45;6.40;99.90
16846;DHT22;8539;53.188;8.696;2024-01-25T01:17:10;6.40;99.90
16846;DHT22;8539;53.188;8.696;2024-01-25T01:19:36;6.40;99.90
16846;DHT22;8539;53.188;8.696;2024-01-25T01:22:01;6.40;99.90
16846;DHT22;8539;53.188;8.696;2024-01-25T01:24:27;6.40;99.90
16846;DHT22;8539;53.188;8.696;2024-01-25T01:26:53;6.40;99.90
16846;DHT22;8539;53.188;8.696;2024-01-25T01:29:19;6.30;99.90
16846;DHT22;8539;53.188;8.696;2024-01-25T01:31:44;6.30;99.90
16846;DHT22;8539;53.188;8.696;2024-01-25T01:34:10;6.40;99.90
16846;DHT22;8539;53.188;8.696;2024-01-25T01:36:37;6.30;99.90
16846;DHT22;8539;53.188;8.696;2024-01-25T01:39:03;6.20;99.90
16846;DHT22;8539;53.188;8.696;2024-01-25T01:41:29;6.20;99.90
16846;DHT22;8539;53.188;8.696;2024-01-25T01:43:54;6.20;99.90
16846;DHT22;8539;53.188;8.696;2024-01-25T01:46:22;6.20;99.90
16846;DHT22;8539;53.188;8.696;2024-01-25T01:48:50;6.20;99.90
16846;DHT22;8539;53.188;8.696;2024-01-25T01:51:16;6.20;99.90
16846;DHT22;8539;53.188;8.696;2024-01-25T01:53:42;6.20;99.90
16846;DHT22;8539;53.188;8.696;2024-01-25T01:56:08;6.10;99.90
16846;DHT22;8539;53.188;8.696;2024-01-25T01:58:34;6.20;99.90
16846;DHT22;8539;53.188;8.696;2024-01-25T02:01:00;6.20;99.90
16846;DHT22;8539;53.188;8.696;2024-01-25T02:03:27;6.10;99.90
16846;DHT22;8539;53.188;8.696;2024-01-25T02:05:53;6.20;99.90
16846;DHT22;8539;53.188;8.696;2024-01-25T02:08:19;6.20;99.90
16846;DHT22;8539;53.188;8.696;2024-01-25T02:13:20;6.20;99.90
16846;DHT22;8539;53.188;8.696;2024-01-25T02:15:51;6.10;99.90
16846;DHT22;8539;53.188;8.696;2024-01-25T02:18:17;6.10;99.90
16846;DHT22;8539;53.188;8.696;2024-01-25T02:20:43;6.10;99.90
16846;DHT22;8539;53.188;8.696;2024-01-25T02:23:08;6.20;99.90
16846;DHT22;8539;53.188;8.696;2024-01-25T02:25:34;6.20;99.90
16846;DHT22;8539;53.188;8.696;2024-01-25T02:27:59;6.10;99.90
16846;DHT22;8539;53.188;8.696;2024-01-25T02:30:25;6.10;99.90
16846;DHT22;8539;53.188;8.696;2024-01-25T02:32:51;6.10;99.90
16846;DHT22;8539;53.188;8.696;2024-01-25T02:35:17;6.00;99.90
16846;DHT22;8539;53.188;8.696;2024-01-25T02:37:43;6.00;99.90
16846;DHT22;8539;53.188;8.696;2024-01-25T02:40:09;6.10;99.90
16846;DHT22;8539;53.188;8.696;2024-01-25T02:42:34;6.00;99.90
16846;DHT22;8539;53.188;8.696;2024-01-25T02:45:00;6.00;99.90
16846;DHT22;8539;53.188;8.696;2024-01-25T02:47:25;6.00;99.90
16846;DHT22;8539;53.188;8.696;2024-01-25T02:49:51;6.00;99.90
16846;DHT22;8539;53.188;8.696;2024-01-25T02:52:17;6.00;99.90
16846;DHT22;8539;53.188;8.696;2024-01-25T02:54:42;6.00;99.90
16846;DHT22;8539;53.188;8.696;2024-01-25T02:57:08;6.00;99.90
16846;DHT22;8539;53.188;8.696;2024-01-25T02:59:33;5.90;99.90
16846;DHT22;8539;53.188;8.696;2024-01-25T03:01:59;5.90;99.90
16846;DHT22;8539;53.188;8.696;2024-01-25T03:04:24;5.90;99.90
16846;DHT22;8539;53.188;8.696;2024-01-25T03:06:50;6.00;99.90
16846;DHT22;8539;53.188;8.696;2024-01-25T03:09:16;5.90;99.90
16846;DHT22;8539;53.188;8.696;2024-01-25T03:11:41;5.90;99.90
16846;DHT22;8539;53.188;8.696;2024-01-25T03:14:07;5.80;99.90
16846;DHT22;8539;53.188;8.696;2024-01-25T03:16:32;5.80;99.90
16846;DHT22;8539;53.188;8.696;2024-01-25T03:18:58;5.80;99.90
16846;DHT22;8539;53.188;8.696;2024-01-25T03:21:24;5.80;99.90
16846;DHT22;8539;53.188;8.696;2024-01-25T03:23:51;5.80;99.90
16846;DHT22;8539;53.188;8.696;2024-01-25T03:26:16;5.80;99.90
16846;DHT22;8539;53.188;8.696;2024-01-25T03:28:42;5.90;99.90
16846;DHT22;8539;53.188;8.696;2024-01-25T03:31:08;5.80;99.90
16846;DHT22;8539;53.188;8.696;2024-01-25T03:33:33;5.80;99.90
16846;DHT22;8539;53.188;8.696;2024-01-25T03:36:05;5.80;99.90
16846;DHT22;8539;53.188;8.696;2024-01-25T03:38:31;5.80;99.90
16846;DHT22;8539;53.188;8.696;2024-01-25T03:40:57;5.80;99.90
16846;DHT22;8539;53.188;8.696;2024-01-25T03:43:24;5.70;99.90
16846;DHT22;8539;53.188;8.696;2024-01-25T03:45:50;5.70;99.90
16846;DHT22;8539;53.188;8.696;2024-01-25T03:48:16;5.70;99.90
16846;DHT22;8539;53.188;8.696;2024-01-25T03:50:41;5.80;99.90
16846;DHT22;8539;53.188;8.696;2024-01-25T03:53:07;5.80;99.90
16846;DHT22;8539;53.188;8.696;2024-01-25T03:55:32;5.80;99.90
16846;DHT22;8539;53.188;8.696;2024-01-25T03:57:58;5.80;99.90
16846;DHT22;8539;53.188;8.696;2024-01-25T04:00:24;5.80;99.90
16846;DHT22;8539;53.188;8.696;2024-01-25T04:02:50;5.80;99.90
16846;DHT22;8539;53.188;8.696;2024-01-25T04:05:16;5.70;99.90
16846;DHT22;8539;53.188;8.696;2024-01-25T04:07:41;5.80;99.90
16846;DHT22;8539;53.188;8.696;2024-01-25T04:10:07;5.80;99.90
16846;DHT22;8539;53.188;8.696;2024-01-25T04:12:32;5.80;99.90
16846;DHT22;8539;53.188;8.696;2024-01-25T04:14:58;5.80;99.90
16846;DHT22;8539;53.188;8.696;2024-01-25T04:17:24;5.80;99.90
16846;DHT22;8539;53.188;8.696;2024-01-25T04:19:50;5.80;99.90
16846;DHT22;8539;53.188;8.696;2024-01-25T04:22:15;5.80;99.90
16846;DHT22;8539;53.188;8.696;2024-01-25T04:24:41;5.80;99.90
16846;DHT22;8539;53.188;8.696;2024-01-25T04:27:07;5.80;99.90
16846;DHT22;8539;53.188;8.696;2024-01-25T04:29:32;5.80;99.90
16846;DHT22;8539;53.188;8.696;2024-01-25T04:31:58;5.90;99.90
16846;DHT22;8539;53.188;8.696;2024-01-25T04:34:24;5.90;99.90
16846;DHT22;8539;53.188;8.696;2024-01-25T04:36:49;5.90;99.90
16846;DHT22;8539;53.188;8.696;2024-01-25T04:39:15;5.90;99.90
16846;DHT22;8539;53.188;8.696;2024-01-25T04:41:40;5.80;99.90
16846;DHT22;8539;53.188;8.696;2024-01-25T04:44:06;5.80;99.90
16846;DHT22;8539;53.188;8.696;2024-01-25T04:46:31;5.80;99.90
16846;DHT22;8539;53.188;8.696;2024-01-25T04:49:02;5.80;99.90
16846;DHT22;8539;53.188;8.696;2024-01-25T04:51:28;5.80;99.90
16846;DHT22;8539;53.188;8.696;2024-01-25T04:53:53;5.80;99.90
16846;DHT22;8539;53.188;8.696;2024-01-25T04:56:19;5.80;99.90
16846;DHT22;8539;53.188;8.696;2024-01-25T04:58:45;5.70;99.90
16846;DHT22;8539;53.188;8.696;2024-01-25T05:01:11;5.70;99.90
16846;DHT22;8539;53.188;8.696;2024-01-25T05:03:36;5.70;99.90
16846;DHT22;8539;53.188;8.696;2024-01-25T05:06:02;5.70;99.90
16846;DHT22;8539;53.188;8.696;2024-01-25T05:08:28;5.70;99.90
16846;DHT22;8539;53.188;8.696;2024-01-25T05:10:53;5.70;99.90
16846;DHT22;8539;53.188;8.696;2024-01-25T05:13:19;5.60;99.90
16846;DHT22;8539;53.188;8.696;2024-01-25T05:15:44;5.60;99.90
16846;DHT22;8539;53.188;8.696;2024-01-25T05:18:10;5.60;99.90
16846;DHT22;8539;53.188;8.696;2024-01-25T05:20:36;5.60;99.90
16846;DHT22;8539;53.188;8.696;2024-01-25T05:23:03;5.60;99.90
16846;DHT22;8539;53.188;8.696;2024-01-25T05:25:29;5.60;99.90
16846;DHT22;8539;53.188;8.696;2024-01-25T05:27:55;5.60;99.90
16846;DHT22;8539;53.188;8.696;2024-01-25T05:30:21;5.60;99.90
16846;DHT22;8539;53.188;8.696;2024-01-25T05:32:46;5.70;99.90
16846;DHT22;8539;53.188;8.696;2024-01-25T05:35:13;5.70;99.90
16846;DHT22;8539;53.188;8.696;2024-01-25T05:37:39;5.70;99.90
16846;DHT22;8539;53.188;8.696;2024-01-25T05:40:05;5.70;99.90
16846;DHT22;8539;53.188;8.696;2024-01-25T05:42:31;5.70;99.90
16846;DHT22;8539;53.188;8.696;2024-01-25T05:44:57;5.70;99.90
16846;DHT22;8539;53.188;8.696;2024-01-25T05:47:23;5.70;99.90
16846;DHT22;8539;53.188;8.696;2024-01-25T05:49:49;5.70;99.90
16846;DHT22;8539;53.188;8.696;2024-01-25T05:52:14;5.70;99.90
16846;DHT22;8539;53.188;8.696;2024-01-25T05:54:40;5.70;99.90
16846;DHT22;8539;53.188;8.696;2024-01-25T05:57:06;5.70;99.90
16846;DHT22;8539;53.188;8.696;2024-01-25T05:59:31;5.70;99.90
16846;DHT22;8539;53.188;8.696;2024-01-25T06:01:57;5.70;99.90
16846;DHT22;8539;53.188;8.696;2024-01-25T06:04:23;5.70;99.90
16846;DHT22;8539;53.188;8.696;2024-01-25T06:06:48;5.70;99.90
16846;DHT22;8539;53.188;8.696;2024-01-25T06:09:14;5.70;99.90
16846;DHT22;8539;53.188;8.696;2024-01-25T06:11:42;5.60;99.90
16846;DHT22;8539;53.188;8.696;2024-01-25T06:14:08;5.60;99.90
16846;DHT22;8539;53.188;8.696;2024-01-25T06:16:34;5.60;99.90
16846;DHT22;8539;53.188;8.696;2024-01-25T06:19:00;5.50;99.90
16846;DHT22;8539;53.188;8.696;2024-01-25T06:21:26;5.50;99.90
16846;DHT22;8539;53.188;8.696;2024-01-25T06:23:52;5.50;99.90
16846;DHT22;8539;53.188;8.696;2024-01-25T06:26:18;5.40;99.90
16846;DHT22;8539;53.188;8.696;2024-01-25T06:28:49;5.40;99.90
16846;DHT22;8539;53.188;8.696;2024-01-25T06:31:15;5.40;99.90
16846;DHT22;8539;53.188;8.696;2024-01-25T06:33:41;5.40;99.90
16846;DHT22;8539;53.188;8.696;2024-01-25T06:36:08;5.40;99.90
16846;DHT22;8539;53.188;8.696;2024-01-25T06:38:34;5.30;99.90
16846;DHT22;8539;53.188;8.696;2024-01-25T06:41:01;5.30;99.90
16846;DHT22;8539;53.188;8.696;2024-01-25T06:43:26;5.30;99.90
16846;DHT22;8539;53.188;8.696;2024-01-25T06:45:52;5.30;99.90
16846;DHT22;8539;53.188;8.696;2024-01-25T06:48:18;5.30;99.90
16846;DHT22;8539;53.188;8.696;2024-01-25T06:50:43;5.30;99.90
16846;DHT22;8539;53.188;8.696;2024-01-25T06:53:09;5.40;99.90
16846;DHT22;8539;53.188;8.696;2024-01-25T06:55:35;5.40;99.90
16846;DHT22;8539;53.188;8.696;2024-01-25T06:58:01;5.40;99.90
16846;DHT22;8539;53.188;8.696;2024-01-25T07:00:27;5.40;99.90
16846;DHT22;8539;53.188;8.696;2024-01-25T07:02:52;5.40;99.90
16846;DHT22;8539;53.188;8.696;2024-01-25T07:05:19;5.40;99.90
16846;DHT22;8539;53.188;8.696;2024-01-25T07:07:45;5.40;99.90
16846;DHT22;8539;53.188;8.696;2024-01-25T07:10:10;5.40;99.90
16846;DHT22;8539;53.188;8.696;2024-01-25T07:12:36;5.50;99.90
16846;DHT22;8539;53.188;8.696;2024-01-25T07:15:01;5.40;99.90
16846;DHT22;8539;53.188;8.696;2024-01-25T07:17:28;5.40;99.90
16846;DHT22;8539;53.188;8.696;2024-01-25T07:19:53;5.40;99.90
16846;DHT22;8539;53.188;8.696;2024-01-25T07:22:19;5.40;99.90
16846;DHT22;8539;53.188;8.696;2024-01-25T07:24:47;5.40;99.90
16846;DHT22;8539;53.188;8.696;2024-01-25T07:27:12;5.50;99.90
16846;DHT22;8539;53.188;8.696;2024-01-25T07:29:38;5.50;99.90
16846;DHT22;8539;53.188;8.696;2024-01-25T07:32:04;5.50;99.90
16846;DHT22;8539;53.188;8.696;2024-01-25T07:34:29;5.50;99.90
16846;DHT22;8539;53.188;8.696;2024-01-25T07:36:55;5.50;99.90
16846;DHT22;8539;53.188;8.696;2024-01-25T07:39:22;5.50;99.90
16846;DHT22;8539;53.188;8.696;2024-01-25T07:41:48;5.60;99.90
16846;DHT22;8539;53.188;8.696;2024-01-25T07:44:14;5.60;99.90
16846;DHT22;8539;53.188;8.696;2024-01-25T07:46:40;5.60;99.90
16846;DHT22;8539;53.188;8.696;2024-01-25T07:49:05;5.60;99.90
16846;DHT22;8539;53.188;8.696;2024-01-25T07:51:31;5.60;99.90
16846;DHT22;8539;53.188;8.696;2024-01-25T07:53:56;5.70;99.90
16846;DHT22;8539;53.188;8.696;2024-01-25T07:56:22;5.70;99.90
16846;DHT22;8539;53.188;8.696;2024-01-25T07:58:48;5.70;99.90
16846;DHT22;8539;53.188;8.696;2024-01-25T08:01:17;5.80;99.90
16846;DHT22;8539;53.188;8.696;2024-01-25T08:03:43;5.80;99.90
16846;DHT22;8539;53.188;8.696;2024-01-25T08:06:08;5.80;99.90
16846;DHT22;8539;53.188;8.696;2024-01-25T08:08:34;5.80;99.90
16846;DHT22;8539;53.188;8.696;2024-01-25T08:10:59;5.80;99.90
16846;DHT22;8539;53.188;8.696;2024-01-25T08:13:25;5.80;99.90
16846;DHT22;8539;53.188;8.696;2024-01-25T08:15:53;5.80;99.90
16846;DHT22;8539;53.188;8.696;2024-01-25T08:18:19;5.80;99.90
16846;DHT22;8539;53.188;8.696;2024-01-25T08:20:45;5.80;99.90
16846;DHT22;8539;53.188;8.696;2024-01-25T08:23:10;5.80;99.90
16846;DHT22;8539;53.188;8.696;2024-01-25T08:25:36;5.90;99.90
16846;DHT22;8539;53.188;8.696;2024-01-25T08:28:02;5.90;99.90
16846;DHT22;8539;53.188;8.696;2024-01-25T08:30:27;5.90;99.90
16846;DHT22;8539;53.188;8.696;2024-01-25T08:32:53;5.90;99.90
16846;DHT22;8539;53.188;8.696;2024-01-25T08:35:19;5.90;99.90
16846;DHT22;8539;53.188;8.696;2024-01-25T08:37:45;5.90;99.90
16846;DHT22;8539;53.188;8.696;2024-01-25T08:40:10;5.90;99.90
16846;DHT22;8539;53.188;8.696;2024-01-25T08:42:36;6.00;99.90
16846;DHT22;8539;53.188;8.696;2024-01-25T08:45:02;6.00;99.90
16846;DHT22;8539;53.188;8.696;2024-01-25T08:47:28;6.00;99.90
16846;DHT22;8539;53.188;8.696;2024-01-25T08:49:54;6.00;99.90
16846;DHT22;8539;53.188;8.696;2024-01-25T08:52:19;6.00;99.90
16846;DHT22;8539;53.188;8.696;2024-01-25T08:54:45;6.10;99.90
16846;DHT22;8539;53.188;8.696;2024-01-25T08:57:11;6.00;99.90
16846;DHT22;8539;53.188;8.696;2024-01-25T08:59:36;6.10;99.90
16846;DHT22;8539;53.188;8.696;2024-01-25T09:02:03;6.10;99.90
16846;DHT22;8539;53.188;8.696;2024-01-25T09:04:30;6.10;99.90
16846;DHT22;8539;53.188;8.696;2024-01-25T09:06:55;6.10;99.90
16846;DHT22;8539;53.188;8.696;2024-01-25T09:09:21;6.10;99.90
16846;DHT22;8539;53.188;8.696;2024-01-25T09:11:46;6.10;99.90
16846;DHT22;8539;53.188;8.696;2024-01-25T09:14:12;6.20;99.90
16846;DHT22;8539;53.188;8.696;2024-01-25T09:16:38;6.20;99.90
16846;DHT22;8539;53.188;8.696;2024-01-25T09:19:04;6.30;99.90
16846;DHT22;8539;53.188;8.696;2024-01-25T09:21:30;6.30;99.90
16846;DHT22;8539;53.188;8.696;2024-01-25T09:23:56;6.40;99.90
16846;DHT22;8539;53.188;8.696;2024-01-25T09:26:21;6.40;99.90
16846;DHT22;8539;53.188;8.696;2024-01-25T09:28:47;6.40;99.90
16846;DHT22;8539;53.188;8.696;2024-01-25T09:31:12;6.40;99.90
16846;DHT22;8539;53.188;8.696;2024-01-25T09:33:38;6.50;99.90
16846;DHT22;8539;53.188;8.696;2024-01-25T09:36:04;6.50;99.90
16846;DHT22;8539;53.188;8.696;2024-01-25T09:38:30;6.50;99.90
16846;DHT22;8539;53.188;8.696;2024-01-25T09:40:56;6.50;99.90
16846;DHT22;8539;53.188;8.696;2024-01-25T09:43:21;6.60;99.90
16846;DHT22;8539;53.188;8.696;2024-01-25T09:45:52;6.60;99.90
16846;DHT22;8539;53.188;8.696;2024-01-25T09:48:19;6.60;99.90
16846;DHT22;8539;53.188;8.696;2024-01-25T09:50:48;6.70;99.90
16846;DHT22;8539;53.188;8.696;2024-01-25T09:53:20;6.60;99.90
16846;DHT22;8539;53.188;8.696;2024-01-25T09:55:48;6.60;99.90
16846;DHT22;8539;53.188;8.696;2024-01-25T09:58:17;6.60;99.90
16846;DHT22;8539;53.188;8.696;2024-01-25T10:00:44;6.70;99.90
16846;DHT22;8539;53.188;8.696;2024-01-25T10:03:10;6.60;99.90
16846;DHT22;8539;53.188;8.696;2024-01-25T10:05:35;6.70;99.90
16846;DHT22;8539;53.188;8.696;2024-01-25T10:08:01;6.70;99.90
16846;DHT22;8539;53.188;8.696;2024-01-25T10:10:26;6.70;99.90
16846;DHT22;8539;53.188;8.696;2024-01-25T10:12:55;6.70;99.90
16846;DHT22;8539;53.188;8.696;2024-01-25T10:15:20;6.70;99.90
16846;DHT22;8539;53.188;8.696;2024-01-25T10:17:46;6.80;99.90
16846;DHT22;8539;53.188;8.696;2024-01-25T10:20:13;6.80;99.90
16846;DHT22;8539;53.188;8.696;2024-01-25T10:22:39;6.90;99.90
16846;DHT22;8539;53.188;8.696;2024-01-25T10:25:11;7.00;99.90
16846;DHT22;8539;53.188;8.696;2024-01-25T10:27:37;7.10;99.90
16846;DHT22;8539;53.188;8.696;2024-01-25T10:30:02;7.10;99.90
16846;DHT22;8539;53.188;8.696;2024-01-25T10:32:30;7.20;99.90
16846;DHT22;8539;53.188;8.696;2024-01-25T10:34:56;7.20;99.90
16846;DHT22;8539;53.188;8.696;2024-01-25T10:37:21;7.20;99.90
16846;DHT22;8539;53.188;8.696;2024-01-25T10:39:48;7.10;99.90
16846;DHT22;8539;53.188;8.696;2024-01-25T10:42:13;7.10;99.90
16846;DHT22;8539;53.188;8.696;2024-01-25T10:44:39;7.00;99.90
16846;DHT22;8539;53.188;8.696;2024-01-25T10:47:05;7.00;99.90
16846;DHT22;8539;53.188;8.696;2024-01-25T10:49:31;7.00;99.90
16846;DHT22;8539;53.188;8.696;2024-01-25T10:51:57;7.00;99.90
16846;DHT22;8539;53.188;8.696;2024-01-25T10:54:23;7.00;99.90
16846;DHT22;8539;53.188;8.696;2024-01-25T10:56:49;7.10;99.90
16846;DHT22;8539;53.188;8.696;2024-01-25T10:59:15;7.10;99.90
16846;DHT22;8539;53.188;8.696;2024-01-25T11:01:44;7.10;99.90
16846;DHT22;8539;53.188;8.696;2024-01-25T11:04:16;7.10;99.90
16846;DHT22;8539;53.188;8.696;2024-01-25T11:06:43;7.20;99.90
16846;DHT22;8539;53.188;8.696;2024-01-25T11:09:09;7.20;99.90
16846;DHT22;8539;53.188;8.696;2024-01-25T11:11:43;7.30;99.90
16846;DHT22;8539;53.188;8.696;2024-01-25T11:14:11;7.40;99.90
16846;DHT22;8539;53.188;8.696;2024-01-25T11:16:37;7.50;99.90
16846;DHT22;8539;53.188;8.696;2024-01-25T11:19:07;7.50;99.90
16846;DHT22;8539;53.188;8.696;2024-01-25T11:21:46;7.60;99.90
16846;DHT22;8539;53.188;8.696;2024-01-25T11:24:57;7.60;99.90
16846;DHT22;8539;53.188;8.696;2024-01-25T11:27:23;7.70;99.90
16846;DHT22;8539;53.188;8.696;2024-01-25T11:41:56;7.80;99.90
16846;DHT22;8539;53.188;8.696;2024-01-25T11:44:22;8.10;99.90
16846;DHT22;8539;53.188;8.696;2024-01-25T11:46:50;8.20;99.90
16846;DHT22;8539;53.188;8.696;2024-01-25T11:49:16;8.30;99.90
16846;DHT22;8539;53.188;8.696;2024-01-25T11:51:42;8.60;99.90
16846;DHT22;8539;53.188;8.696;2024-01-25T11:54:08;8.90;99.90
16846;DHT22;8539;53.188;8.696;2024-01-25T11:56:37;9.00;99.90
16846;DHT22;8539;53.188;8.696;2024-01-25T11:59:06;9.10;99.90
16846;DHT22;8539;53.188;8.696;2024-01-25T12:01:34;9.00;99.90
16846;DHT22;8539;53.188;8.696;2024-01-25T12:03:59;9.00;99.90
16846;DHT22;8539;53.188;8.696;2024-01-25T12:06:27;8.90;99.90
16846;DHT22;8539;53.188;8.696;2024-01-25T12:08:53;9.00;99.90
16846;DHT22;8539;53.188;8.696;2024-01-25T12:11:18;9.00;99.90
16846;DHT22;8539;53.188;8.696;2024-01-25T12:13:47;9.10;99.90
16846;DHT22;8539;53.188;8.696;2024-01-25T12:16:13;9.20;99.90
16846;DHT22;8539;53.188;8.696;2024-01-25T12:18:42;9.10;99.90
16846;DHT22;8539;53.188;8.696;2024-01-25T12:21:08;8.90;99.90
16846;DHT22;8539;53.188;8.696;2024-01-25T12:23:36;8.80;99.90
16846;DHT22;8539;53.188;8.696;2024-01-25T12:26:07;8.70;99.90
16846;DHT22;8539;53.188;8.696;2024-01-25T12:28:34;8.60;99.90
16846;DHT22;8539;53.188;8.696;2024-01-25T12:31:01;8.60;99.90
16846;DHT22;8539;53.188;8.696;2024-01-25T12:33:29;8.50;99.90
16846;DHT22;8539;53.188;8.696;2024-01-25T12:35:55;8.50;99.90
16846;DHT22;8539;53.188;8.696;2024-01-25T12:38:21;8.60;99.90
16846;DHT22;8539;53.188;8.696;2024-01-25T12:40:49;8.70;99.90
16846;DHT22;8539;53.188;8.696;2024-01-25T12:43:16;8.90;99.90
16846;DHT22;8539;53.188;8.696;2024-01-25T12:45:42;9.00;99.90
16846;DHT22;8539;53.188;8.696;2024-01-25T12:48:08;9.20;99.90
16846;DHT22;8539;53.188;8.696;2024-01-25T12:50:35;9.30;99.90
16846;DHT22;8539;53.188;8.696;2024-01-25T12:53:01;9.30;99.90
16846;DHT22;8539;53.188;8.696;2024-01-25T12:55:28;9.50;99.90
16846;DHT22;8539;53.188;8.696;2024-01-25T12:57:55;9.60;99.90
16846;DHT22;8539;53.188;8.696;2024-01-25T13:00:55;9.60;99.90
16846;DHT22;8539;53.188;8.696;2024-01-25T13:03:23;9.60;99.90
16846;DHT22;8539;53.188;8.696;2024-01-25T13:05:50;9.70;99.90
16846;DHT22;8539;53.188;8.696;2024-01-25T13:08:17;9.70;99.90
16846;DHT22;8539;53.188;8.696;2024-01-25T13:10:45;9.50;99.90
16846;DHT22;8539;53.188;8.696;2024-01-25T13:13:15;9.40;99.90
16846;DHT22;8539;53.188;8.696;2024-01-25T13:15:42;9.30;99.90
16846;DHT22;8539;53.188;8.696;2024-01-25T13:18:12;9.30;99.90
16846;DHT22;8539;53.188;8.696;2024-01-25T13:20:42;9.30;99.90
16846;DHT22;8539;53.188;8.696;2024-01-25T13:23:12;9.60;99.90
16846;DHT22;8539;53.188;8.696;2024-01-25T13:25:39;10.20;99.90
16846;DHT22;8539;53.188;8.696;2024-01-25T13:30:34;10.80;99.90
16846;DHT22;8539;53.188;8.696;2024-01-25T13:33:02;10.80;99.90
16846;DHT22;8539;53.188;8.696;2024-01-25T13:35:29;10.60;99.90
16846;DHT22;8539;53.188;8.696;2024-01-25T13:37:56;10.40;99.90
16846;DHT22;8539;53.188;8.696;2024-01-25T13:40:27;10.10;99.90
16846;DHT22;8539;53.188;8.696;2024-01-25T13:42:55;9.90;99.90
16846;DHT22;8539;53.188;8.696;2024-01-25T13:45:23;9.60;99.90
16846;DHT22;8539;53.188;8.696;2024-01-25T13:47:53;9.30;99.90
16846;DHT22;8539;53.188;8.696;2024-01-25T13:50:20;9.10;99.90
16846;DHT22;8539;53.188;8.696;2024-01-25T13:52:47;8.90;99.90
16846;DHT22;8539;53.188;8.696;2024-01-25T13:55:14;9.10;99.90
16846;DHT22;8539;53.188;8.696;2024-01-25T13:57:41;9.50;99.90
16846;DHT22;8539;53.188;8.696;2024-01-25T14:00:09;9.80;99.90
16846;DHT22;8539;53.188;8.696;2024-01-25T14:02:39;10.00;99.90
16846;DHT22;8539;53.188;8.696;2024-01-25T14:05:12;10.00;99.90
16846;DHT22;8539;53.188;8.696;2024-01-25T14:07:42;10.00;99.90
16846;DHT22;8539;53.188;8.696;2024-01-25T14:10:11;9.90;99.90
16846;DHT22;8539;53.188;8.696;2024-01-25T14:12:38;9.90;99.90
16846;DHT22;8539;53.188;8.696;2024-01-25T14:15:06;10.00;99.90
16846;DHT22;8539;53.188;8.696;2024-01-25T14:17:33;9.90;99.90
16846;DHT22;8539;53.188;8.696;2024-01-25T14:20:04;10.00;99.90
16846;DHT22;8539;53.188;8.696;2024-01-25T14:22:32;10.10;99.90
16846;DHT22;8539;53.188;8.696;2024-01-25T14:25:03;10.10;99.90
16846;DHT22;8539;53.188;8.696;2024-01-25T14:27:30;10.10;99.90
16846;DHT22;8539;53.188;8.696;2024-01-25T14:29:58;10.00;99.90
16846;DHT22;8539;53.188;8.696;2024-01-25T14:32:27;10.10;99.90
16846;DHT22;8539;53.188;8.696;2024-01-25T14:34:56;10.30;99.90
16846;DHT22;8539;53.188;8.696;2024-01-25T14:37:24;10.50;99.90
16846;DHT22;8539;53.188;8.696;2024-01-25T14:39:51;10.60;99.90
16846;DHT22;8539;53.188;8.696;2024-01-25T14:42:40;10.50;99.90
16846;DHT22;8539;53.188;8.696;2024-01-25T14:45:08;10.30;99.90
16846;DHT22;8539;53.188;8.696;2024-01-25T14:47:35;10.00;99.90
16846;DHT22;8539;53.188;8.696;2024-01-25T14:50:02;9.70;99.90
16846;DHT22;8539;53.188;8.696;2024-01-25T14:52:29;9.30;99.90
16846;DHT22;8539;53.188;8.696;2024-01-25T14:55:01;9.00;99.90
16846;DHT22;8539;53.188;8.696;2024-01-25T14:57:28;8.80;99.90
16846;DHT22;8539;53.188;8.696;2024-01-25T14:59:56;8.60;99.90
16846;DHT22;8539;53.188;8.696;2024-01-25T15:02:23;8.50;99.90
16846;DHT22;8539;53.188;8.696;2024-01-25T15:04:50;8.30;99.90
16846;DHT22;8539;53.188;8.696;2024-01-25T15:07:17;8.10;99.90
16846;DHT22;8539;53.188;8.696;2024-01-25T15:09:48;8.00;99.90
16846;DHT22;8539;53.188;8.696;2024-01-25T15:12:16;7.80;99.90
16846;DHT22;8539;53.188;8.696;2024-01-25T15:14:45;7.70;99.90
16846;DHT22;8539;53.188;8.696;2024-01-25T15:17:12;7.50;99.90
16846;DHT22;8539;53.188;8.696;2024-01-25T15:19:39;7.40;99.90
16846;DHT22;8539;53.188;8.696;2024-01-25T15:22:07;7.40;99.90
16846;DHT22;8539;53.188;8.696;2024-01-25T15:24:34;7.30;99.90
16846;DHT22;8539;53.188;8.696;2024-01-25T15:27:02;7.20;99.90
16846;DHT22;8539;53.188;8.696;2024-01-25T15:29:29;7.10;99.90
16846;DHT22;8539;53.188;8.696;2024-01-25T15:31:58;7.10;99.90
16846;DHT22;8539;53.188;8.696;2024-01-25T15:34:25;7.00;99.90
16846;DHT22;8539;53.188;8.696;2024-01-25T15:36:52;6.90;99.90
16846;DHT22;8539;53.188;8.696;2024-01-25T15:39:19;6.80;99.90
16846;DHT22;8539;53.188;8.696;2024-01-25T15:41:47;6.70;99.90
16846;DHT22;8539;53.188;8.696;2024-01-25T15:44:16;6.60;99.90
16846;DHT22;8539;53.188;8.696;2024-01-25T15:46:44;6.60;99.90
16846;DHT22;8539;53.188;8.696;2024-01-25T15:49:11;6.50;99.90
16846;DHT22;8539;53.188;8.696;2024-01-25T15:51:38;6.40;99.90
16846;DHT22;8539;53.188;8.696;2024-01-25T15:54:06;6.40;99.90
16846;DHT22;8539;53.188;8.696;2024-01-25T15:56:33;6.30;99.90
16846;DHT22;8539;53.188;8.696;2024-01-25T15:59:00;6.20;99.90
16846;DHT22;8539;53.188;8.696;2024-01-25T16:01:27;6.20;99.90
16846;DHT22;8539;53.188;8.696;2024-01-25T16:03:57;6.10;99.90
16846;DHT22;8539;53.188;8.696;2024-01-25T16:06:24;6.00;99.90
16846;DHT22;8539;53.188;8.696;2024-01-25T16:08:51;6.00;99.90
16846;DHT22;8539;53.188;8.696;2024-01-25T16:11:19;6.00;99.90
16846;DHT22;8539;53.188;8.696;2024-01-25T16:13:46;5.90;99.90